Home > Products > Valid Products > TAF

000
FTUS46 KSTO 250156 AAB
TAFRBL
TAF AMD
KRBL 250156Z 2502/2524 31010KT P6SM BKN060
     FM250600 VRB05KT P6SM BKN100
     FM251500 VRB04KT P6SM BKN025
     FM252100 19006KT P6SM BKN100=



000
FTUS46 KSTO 250024 AAA
TAFRBL
TAF AMD
KRBL 250024Z 2500/2524 14014KT P6SM SCT060
     FM250040 14014KT P6SM TSRA BKN050CB
     FM250200 15008KT P6SM BKN100
     FM251500 VRB04KT P6SM BKN025
     FM252100 19006KT P6SM BKN100=



000
FTUS46 KSTO 242320
TAFRDD
TAF
KRDD 242320Z 2500/2524 18007KT P6SM VCSH BKN050
     FM250400 VRB04KT P6SM BKN050=



000
FTUS46 KSTO 242320
TAFSAC
TAF
KSAC 242320Z 2500/2524 21010G17KT P6SM SCT040 BKN080
     FM250600 18004KT P6SM SCT150=



000
FTUS46 KSTO 242320
TAFRBL
TAF
KRBL 242320Z 2500/2524 16010KT P6SM VCSH BKN050
     FM250400 VRB04KT P6SM BKN050=



000
FTUS46 KSTO 242320
TAFSCK
TAF
KSCK 242320Z 2500/2524 28011G20KT P6SM FEW050 SCT100
     FM250600 28006KT P6SM SCT150=



000
FTUS46 KSTO 242320
TAFMHR
TAF
KMHR 242320Z 2500/2524 20008G16KT P6SM SCT040 BKN080
     FM250600 15005KT P6SM SCT150=



000
FTUS46 KSTO 242320
TAFSMF
TAF
KSMF 242320Z 2500/2524 19010G17KT P6SM SCT040 BKN080
     FM250600 16006KT P6SM SCT150=



000
FTUS46 KSTO 241735
TAFSMF
TAF
KSMF 241735Z 2418/2518 18010KT P6SM BKN080
     FM250600 16006KT P6SM SCT150=



000
FTUS46 KSTO 241735
TAFMHR
TAF
KMHR 241735Z 2418/2518 22008KT P6SM SCT150
      TEMPO 2418/2421 VRB03KT OVC015
     FM250600 15005KT P6SM SCT150=



000
FTUS46 KSTO 241735
TAFSCK
TAF
KSCK 241735Z 2418/2518 29011G18KT P6SM SCT150
     FM250600 28006KT P6SM SCT150=



000
FTUS46 KSTO 241735
TAFRBL
TAF
KRBL 241735Z 2418/2518 VRB06KT P6SM SCT080 BKN200
     FM242100 17008KT P6SM VCSH BKN050
     FM250400 VRB04KT P6SM BKN050=



000
FTUS46 KSTO 241735
TAFRDD
TAF
KRDD 241735Z 2418/2518 VRB05KT P6SM SCT060 BKN200
     FM242100 18007KT P6SM VCSH BKN050
     FM250400 VRB04KT P6SM BKN050=



000
FTUS46 KSTO 241735
TAFSAC
TAF
KSAC 241735Z 2418/2518 20008KT P6SM BKN080
     FM250600 18004KT P6SM SCT150=



000
FTUS46 KSTO 232332
TAFSMF
TAF
KSMF 232332Z 2400/2424 22006KT P6SM BKN090 BKN200
     FM240600 15006KT P6SM SCT200
     FM241800 18008KT P6SM FEW050 SCT200=



000
FTUS46 KSTO 232332
TAFSCK
TAF
KSCK 232332Z 2400/2424 29008KT P6SM SCT250=



000
FTUS46 KSTO 232332
TAFRBL
TAF
KRBL 232332Z 2400/2424 VRB04KT P6SM SCT060 BKN200
     FM241800 17004KT P6SM FEW200=



000
FTUS46 KSTO 232332
TAFSAC
TAF
KSAC 232332Z 2400/2424 22007KT P6SM BKN090 BKN200
     FM240600 17004KT P6SM SCT200
     FM241800 21007KT P6SM FEW050 SCT200=



000
FTUS46 KSTO 232332
TAFMHR
TAF
KMHR 232332Z 2400/2424 22006KT P6SM BKN090 BKN200
     FM240600 17005KT P6SM SCT200
     FM241800 20008KT P6SM FEW050 SCT200=



000
FTUS46 KSTO 232332
TAFRDD
TAF
KRDD 232332Z 2400/2424 VRB04KT P6SM SCT060 BKN200
     FM241800 17005KT P6SM FEW200=



000
FTUS46 KSTO 231130
TAFRBL
TAF
KRBL 231130Z 2312/2412 32005KT P6SM BKN060
     FM231800 15006KT P6SM BKN050
     FM240600 31003KT P6SM BKN050=



000
FTUS46 KSTO 231130
TAFSAC
TAF
KSAC 231130Z 2312/2412 14003KT P6SM BKN200
     FM231800 22005KT P6SM BKN100
     FM240600 18003KT P6SM BKN200=



000
FTUS46 KSTO 231130
TAFSCK
TAF
KSCK 231130Z 2312/2412 VRB06KT P6SM FEW250
     FM231800 28008KT P6SM BKN150
     FM240600 27010KT P6SM BKN200=



000
FTUS46 KSTO 231130
TAFMHR
TAF
KMHR 231130Z 2312/2412 20006KT P6SM FEW050 BKN200
     FM231800 20005KT P6SM BKN120
     FM240600 16005KT P6SM BKN200=



000
FTUS46 KSTO 231130
TAFSMF
TAF
KSMF 231130Z 2312/2412 14007KT P6SM BKN200
     FM231800 19006KT P6SM BKN100
     FM240600 16006KT P6SM SCT200=



000
FTUS46 KSTO 231130
TAFRDD
TAF
KRDD 231130Z 2312/2412 30003KT P6SM OVC080
     FM232100 19007KT P6SM BKN050
     FM240600 VRB02KT P6SM BKN100=



000
FTUS46 KSTO 221729
TAFRBL
TAF
KRBL 221729Z 2218/2318 16010KT P6SM BKN060
     FM222100 16010KT P6SM VCSH BKN050
     FM230400 VRB05KT P6SM BKN100=



000
FTUS46 KSTO 221729
TAFRDD
TAF
KRDD 221729Z 2218/2318 18010KT P6SM VCSH BKN050
     FM230400 VRB04KT P6SM BKN050=



000
FTUS46 KSTO 221729
TAFMHR
TAF
KMHR 221729Z 2218/2318 20006KT P6SM SCT015 SCT250
     FM222100 23008KT P6SM SCT050 SCT100
     FM230600 15004KT P6SM BKN250=



000
FTUS46 KSTO 221729
TAFSAC
TAF
KSAC 221729Z 2218/2318 22005KT P6SM FEW015 SCT250
     FM222100 23009KT P6SM SCT050 SCT100
     FM230600 VRB04KT P6SM BKN250=



000
FTUS46 KSTO 221729
TAFSMF
TAF
KSMF 221729Z 2218/2318 15006KT P6SM FEW015 SCT250
     FM222100 20009KT P6SM SCT050 SCT100
     FM230600 15006KT P6SM BKN250=



000
FTUS46 KSTO 221729
TAFSCK
TAF
KSCK 221729Z 2218/2318 30006KT P6SM FEW030 SCT250
     FM222300 29011G18KT P6SM SCT100
     FM230400 27007KT P6SM FEW250=



000
FTUS46 KSTO 221120
TAFMHR
TAF
KMHR 221120Z 2212/2312 12006KT P6SM SKC
     FM222100 23008KT P6SM SCT100
      AMD NOT SKED=



000
FTUS46 KSTO 221120
TAFSMF
TAF
KSMF 221120Z 2212/2312 15006KT P6SM SKC
     FM222100 21009KT P6SM SCT100=



000
FTUS46 KSTO 221120
TAFSCK
TAF
KSCK 221120Z 2212/2312 27009KT P6SM SKC
     FM222300 29011G18KT P6SM SCT100
     FM230400 27007KT P6SM FEW250=



000
FTUS46 KSTO 221120
TAFRDD
TAF
KRDD 221120Z 2212/2312 VRB03KT P6SM VCSH SCT040 OVC060
      TEMPO 2212/2216 6SM -SHRA BKN025 OVC040
     FM221600 18008KT P6SM BKN070
     FM222200 19008KT P6SM VCSH BKN050=



000
FTUS46 KSTO 221120
TAFRBL
TAF
KRBL 221120Z 2212/2312 VRB04KT P6SM BKN060
     FM222100 16008KT P6SM VCSH BKN050=



000
FTUS46 KSTO 221120
TAFSAC
TAF
KSAC 221120Z 2212/2312 VRB04KT P6SM SKC
     FM222100 23009KT P6SM SCT100=



    US Dept of Commerce
    National Oceanic and Atmospheric Administration
    National Weather Service
    1325 East West Highway
    Silver Spring, MD 20910
    Page Author: NWS Internet Services Team
Disclaimer
Information Quality
Credits
Glossary
Privacy Policy
Freedom of Information Act (FOIA)
About Us
Career Opportunities